sensor_id;sensor_type;location;lat;lon;timestamp;pressure;altitude;pressure_sealevel;temperature;humidity
25664;BME280;13522;50.018;20.014;2023-04-24T01:45:44;97943.63;;;11.25;82.96
25664;BME280;13522;50.018;20.014;2023-04-24T02:32:45;97893.28;;;11.07;80.75
25664;BME280;13522;50.018;20.014;2023-04-24T02:35:57;97898.28;;;11.10;79.03
25664;BME280;13522;50.018;20.014;2023-04-24T02:39:10;97889.83;;;10.91;80.39
25664;BME280;13522;50.018;20.014;2023-04-24T02:42:23;97886.33;;;10.98;79.73
25664;BME280;13522;50.018;20.014;2023-04-24T02:45:35;97880.04;;;10.83;83.50
25664;BME280;13522;50.018;20.014;2023-04-24T02:54:48;97871.72;;;10.70;81.95
25664;BME280;13522;50.018;20.014;2023-04-24T02:58:00;97862.59;;;10.57;81.05
25664;BME280;13522;50.018;20.014;2023-04-24T03:01:12;97864.58;;;10.55;80.78
25664;BME280;13522;50.018;20.014;2023-04-24T03:10:25;97872.72;;;10.53;80.92
25664;BME280;13522;50.018;20.014;2023-04-24T03:13:39;97876.37;;;10.68;78.90
25664;BME280;13522;50.018;20.014;2023-04-24T03:16:52;97871.05;;;10.68;79.74
25664;BME280;13522;50.018;20.014;2023-04-24T03:20:07;97877.03;;;10.62;77.32
25664;BME280;13522;50.018;20.014;2023-04-24T03:23:21;97875.70;;;10.58;78.90
25664;BME280;13522;50.018;20.014;2023-04-24T03:26:33;97869.05;;;10.46;79.54
25664;BME280;13522;50.018;20.014;2023-04-24T03:29:48;97872.02;;;10.27;84.88
25664;BME280;13522;50.018;20.014;2023-04-24T03:33:06;97871.33;;;10.17;87.44
25664;BME280;13522;50.018;20.014;2023-04-24T03:36:21;97867.70;;;10.18;83.56
25664;BME280;13522;50.018;20.014;2023-04-24T03:39:34;97878.56;;;10.07;89.17
25664;BME280;13522;50.018;20.014;2023-04-24T03:42:47;97879.09;;;10.10;86.20
25664;BME280;13522;50.018;20.014;2023-04-24T03:45:59;97879.23;;;10.09;86.04
25664;BME280;13522;50.018;20.014;2023-04-24T03:49:14;97882.20;;;9.98;89.07
25664;BME280;13522;50.018;20.014;2023-04-24T03:58:27;97879.95;;;9.77;88.03
25664;BME280;13522;50.018;20.014;2023-04-24T04:01:39;97876.13;;;9.72;88.86
25664;BME280;13522;50.018;20.014;2023-04-24T04:04:54;97883.06;;;9.65;90.77
25664;BME280;13522;50.018;20.014;2023-04-24T04:11:06;97890.48;;;9.61;91.92
25664;BME280;13522;50.018;20.014;2023-04-24T04:14:19;97879.45;;;9.74;89.44
25664;BME280;13522;50.018;20.014;2023-04-24T04:17:31;97879.11;;;9.77;88.57
25664;BME280;13522;50.018;20.014;2023-04-24T04:20:44;97884.55;;;9.67;90.81
25664;BME280;13522;50.018;20.014;2023-04-24T04:23:56;97873.47;;;9.72;89.95
25664;BME280;13522;50.018;20.014;2023-04-24T04:27:10;97875.13;;;9.73;91.35
25664;BME280;13522;50.018;20.014;2023-04-24T04:30:27;97872.00;;;9.77;91.00
25664;BME280;13522;50.018;20.014;2023-04-24T04:33:41;97876.50;;;9.85;91.66
25664;BME280;13522;50.018;20.014;2023-04-24T04:36:53;97872.90;;;9.94;90.53
25664;BME280;13522;50.018;20.014;2023-04-24T04:40:12;97868.42;;;10.02;90.86
25664;BME280;13522;50.018;20.014;2023-04-24T04:43:26;97869.68;;;10.16;89.98
25664;BME280;13522;50.018;20.014;2023-04-24T04:46:38;97870.03;;;10.29;89.38
25664;BME280;13522;50.018;20.014;2023-04-24T04:49:56;97863.59;;;10.39;88.01
25664;BME280;13522;50.018;20.014;2023-04-24T04:53:10;97859.45;;;10.53;90.16
25664;BME280;13522;50.018;20.014;2023-04-24T04:56:23;97861.76;;;10.64;90.31
25664;BME280;13522;50.018;20.014;2023-04-24T04:59:37;97863.09;;;10.76;88.11
25664;BME280;13522;50.018;20.014;2023-04-24T05:02:52;97855.96;;;10.85;86.15
25664;BME280;13522;50.018;20.014;2023-04-24T05:06:08;97861.45;;;10.91;86.47
25664;BME280;13522;50.018;20.014;2023-04-24T05:09:22;97832.52;;;11.04;86.59
25664;BME280;13522;50.018;20.014;2023-04-24T05:12:37;97858.61;;;11.72;84.25
25664;BME280;13522;50.018;20.014;2023-04-24T05:15:51;97868.53;;;11.86;83.36
25664;BME280;13522;50.018;20.014;2023-04-24T05:19:04;97858.88;;;11.85;82.03
25664;BME280;13522;50.018;20.014;2023-04-24T05:22:19;97859.38;;;11.88;81.36
25664;BME280;13522;50.018;20.014;2023-04-24T05:25:31;97862.99;;;11.95;82.24
25664;BME280;13522;50.018;20.014;2023-04-24T05:28:47;97851.75;;;12.16;80.95
25664;BME280;13522;50.018;20.014;2023-04-24T05:32:00;97862.82;;;12.28;82.93
25664;BME280;13522;50.018;20.014;2023-04-24T05:35:13;97862.59;;;12.37;81.49
25664;BME280;13522;50.018;20.014;2023-04-24T05:38:25;97846.59;;;12.60;80.04
25664;BME280;13522;50.018;20.014;2023-04-24T05:41:38;97849.25;;;12.82;79.15
25664;BME280;13522;50.018;20.014;2023-04-24T05:44:50;97835.74;;;13.07;79.46
25664;BME280;13522;50.018;20.014;2023-04-24T05:48:05;97827.59;;;13.23;76.70
25664;BME280;13522;50.018;20.014;2023-04-24T05:51:17;97834.77;;;13.37;77.26
25664;BME280;13522;50.018;20.014;2023-04-24T05:54:29;97829.03;;;13.69;78.20
25664;BME280;13522;50.018;20.014;2023-04-24T05:57:42;97828.09;;;13.91;77.36
25664;BME280;13522;50.018;20.014;2023-04-24T06:00:55;97832.46;;;14.13;77.96
25664;BME280;13522;50.018;20.014;2023-04-24T06:04:08;97821.27;;;14.39;74.35
25664;BME280;13522;50.018;20.014;2023-04-24T06:07:22;97824.63;;;14.68;71.94
25664;BME280;13522;50.018;20.014;2023-04-24T06:10:34;97816.91;;;15.01;70.80
25664;BME280;13522;50.018;20.014;2023-04-24T06:13:48;97813.03;;;15.38;69.62
25664;BME280;13522;50.018;20.014;2023-04-24T06:17:11;97808.40;;;15.53;67.08
25664;BME280;13522;50.018;20.014;2023-04-24T06:20:24;97800.99;;;15.96;65.46
25664;BME280;13522;50.018;20.014;2023-04-24T06:23:36;97796.63;;;16.55;64.47
25664;BME280;13522;50.018;20.014;2023-04-24T06:26:49;97780.52;;;17.14;60.55
25664;BME280;13522;50.018;20.014;2023-04-24T06:30:03;97768.91;;;17.46;57.53
25664;BME280;13522;50.018;20.014;2023-04-24T06:33:18;97766.61;;;18.07;58.35
25664;BME280;13522;50.018;20.014;2023-04-24T06:36:31;97763.16;;;18.31;55.33
25664;BME280;13522;50.018;20.014;2023-04-24T06:39:44;97758.02;;;18.61;57.08
25664;BME280;13522;50.018;20.014;2023-04-24T06:42:56;97750.53;;;19.12;54.82
25664;BME280;13522;50.018;20.014;2023-04-24T06:46:09;97751.08;;;19.93;54.67
25664;BME280;13522;50.018;20.014;2023-04-24T06:49:21;97745.81;;;19.68;52.53
25664;BME280;13522;50.018;20.014;2023-04-24T06:52:33;97746.83;;;19.85;51.94
25664;BME280;13522;50.018;20.014;2023-04-24T06:55:48;97740.33;;;20.23;52.92
25664;BME280;13522;50.018;20.014;2023-04-24T06:59:01;97729.52;;;20.64;51.04
25664;BME280;13522;50.018;20.014;2023-04-24T07:02:13;97731.69;;;20.85;50.47
25664;BME280;13522;50.018;20.014;2023-04-24T07:05:26;97730.43;;;21.11;49.91
25664;BME280;13522;50.018;20.014;2023-04-24T07:08:41;97721.81;;;21.48;49.60
25664;BME280;13522;50.018;20.014;2023-04-24T07:11:54;97718.72;;;22.08;47.39
25664;BME280;13522;50.018;20.014;2023-04-24T07:15:09;97716.30;;;22.68;46.61
25664;BME280;13522;50.018;20.014;2023-04-24T07:18:22;97705.80;;;22.71;44.74
25664;BME280;13522;50.018;20.014;2023-04-24T07:21:34;97700.86;;;23.01;43.47
25664;BME280;13522;50.018;20.014;2023-04-24T07:24:47;97696.41;;;23.72;42.31
25664;BME280;13522;50.018;20.014;2023-04-24T07:28:00;97692.77;;;24.04;41.27
25664;BME280;13522;50.018;20.014;2023-04-24T07:31:12;97690.56;;;24.28;38.61
25664;BME280;13522;50.018;20.014;2023-04-24T07:34:25;97694.27;;;23.52;37.35
25664;BME280;13522;50.018;20.014;2023-04-24T07:37:38;97680.73;;;24.22;32.77
25664;BME280;13522;50.018;20.014;2023-04-24T07:40:51;97680.92;;;24.42;33.13
25664;BME280;13522;50.018;20.014;2023-04-24T07:44:04;97694.57;;;23.34;32.24
25664;BME280;13522;50.018;20.014;2023-04-24T07:47:17;97699.09;;;23.93;32.00
25664;BME280;13522;50.018;20.014;2023-04-24T07:50:29;97693.39;;;23.68;32.01
25664;BME280;13522;50.018;20.014;2023-04-24T07:53:42;97696.59;;;23.65;32.00
25664;BME280;13522;50.018;20.014;2023-04-24T07:56:55;97693.83;;;23.39;32.59
25664;BME280;13522;50.018;20.014;2023-04-24T08:00:10;97688.54;;;23.49;32.69
25664;BME280;13522;50.018;20.014;2023-04-24T08:03:24;97685.96;;;23.59;32.07
25664;BME280;13522;50.018;20.014;2023-04-24T08:06:36;97687.22;;;23.73;31.76
25664;BME280;13522;50.018;20.014;2023-04-24T08:09:48;97680.52;;;23.80;31.14
25664;BME280;13522;50.018;20.014;2023-04-24T08:13:01;97681.23;;;23.49;31.51
25664;BME280;13522;50.018;20.014;2023-04-24T08:16:13;97674.29;;;23.58;31.10
25664;BME280;13522;50.018;20.014;2023-04-24T08:19:26;97670.09;;;23.94;30.76
25664;BME280;13522;50.018;20.014;2023-04-24T08:22:38;97663.42;;;24.91;32.88
25664;BME280;13522;50.018;20.014;2023-04-24T08:25:52;97663.58;;;24.48;30.42
25664;BME280;13522;50.018;20.014;2023-04-24T08:29:06;97659.39;;;24.99;31.17
25664;BME280;13522;50.018;20.014;2023-04-24T08:32:19;97655.50;;;24.90;29.90
25664;BME280;13522;50.018;20.014;2023-04-24T08:35:34;97653.44;;;25.54;29.55
25664;BME280;13522;50.018;20.014;2023-04-24T08:38:46;97653.87;;;25.36;30.96
25664;BME280;13522;50.018;20.014;2023-04-24T08:41:59;97659.47;;;25.66;32.00
25664;BME280;13522;50.018;20.014;2023-04-24T08:45:14;97653.75;;;25.62;32.04
25664;BME280;13522;50.018;20.014;2023-04-24T08:48:27;97649.69;;;25.70;32.63
25664;BME280;13522;50.018;20.014;2023-04-24T08:51:40;97642.94;;;25.88;31.39
25664;BME280;13522;50.018;20.014;2023-04-24T08:54:55;97641.54;;;25.13;28.21
25664;BME280;13522;50.018;20.014;2023-04-24T08:58:08;97644.55;;;24.75;28.91
25664;BME280;13522;50.018;20.014;2023-04-24T09:01:21;97641.70;;;24.60;29.45
25664;BME280;13522;50.018;20.014;2023-04-24T09:04:37;97633.92;;;25.77;30.37
25664;BME280;13522;50.018;20.014;2023-04-24T09:07:53;97634.41;;;25.54;28.34
25664;BME280;13522;50.018;20.014;2023-04-24T09:11:06;97644.09;;;25.35;30.07
25664;BME280;13522;50.018;20.014;2023-04-24T09:14:20;97635.52;;;24.69;30.21
25664;BME280;13522;50.018;20.014;2023-04-24T09:17:33;97630.41;;;24.41;28.67
25664;BME280;13522;50.018;20.014;2023-04-24T09:21:03;97625.70;;;24.63;29.04
25664;BME280;13522;50.018;20.014;2023-04-24T09:24:18;97630.23;;;25.36;29.78
25664;BME280;13522;50.018;20.014;2023-04-24T09:27:32;97622.33;;;26.17;30.41
25664;BME280;13522;50.018;20.014;2023-04-24T09:30:45;97606.28;;;26.81;28.19
25664;BME280;13522;50.018;20.014;2023-04-24T09:33:59;97614.92;;;27.08;26.38
25664;BME280;13522;50.018;20.014;2023-04-24T09:37:20;97610.80;;;27.35;27.13
25664;BME280;13522;50.018;20.014;2023-04-24T09:40:45;97608.37;;;27.19;25.97
25664;BME280;13522;50.018;20.014;2023-04-24T09:44:01;97616.55;;;27.19;25.18
25664;BME280;13522;50.018;20.014;2023-04-24T09:47:15;97607.26;;;27.25;25.10
25664;BME280;13522;50.018;20.014;2023-04-24T09:50:29;97605.27;;;28.04;25.76
25664;BME280;13522;50.018;20.014;2023-04-24T09:53:46;97604.34;;;27.01;24.59
25664;BME280;13522;50.018;20.014;2023-04-24T09:57:00;97596.80;;;27.57;24.01
25664;BME280;13522;50.018;20.014;2023-04-24T10:00:15;97594.59;;;28.08;24.28
25664;BME280;13522;50.018;20.014;2023-04-24T10:03:33;97589.24;;;27.34;24.57
25664;BME280;13522;50.018;20.014;2023-04-24T10:06:47;97588.95;;;27.30;24.56
25664;BME280;13522;50.018;20.014;2023-04-24T10:10:01;97582.03;;;27.63;24.65
25664;BME280;13522;50.018;20.014;2023-04-24T10:13:15;97572.16;;;28.11;23.63
25664;BME280;13522;50.018;20.014;2023-04-24T10:16:27;97571.00;;;28.56;25.76
25664;BME280;13522;50.018;20.014;2023-04-24T10:19:41;97571.09;;;28.41;24.29
25664;BME280;13522;50.018;20.014;2023-04-24T10:22:55;97574.74;;;27.92;25.77
25664;BME280;13522;50.018;20.014;2023-04-24T10:26:08;97579.48;;;27.13;27.62
25664;BME280;13522;50.018;20.014;2023-04-24T10:29:22;97574.00;;;27.23;26.00
25664;BME280;13522;50.018;20.014;2023-04-24T10:32:36;97577.90;;;26.97;28.73
25664;BME280;13522;50.018;20.014;2023-04-24T10:35:50;97571.94;;;26.64;25.84
25664;BME280;13522;50.018;20.014;2023-04-24T10:39:07;97570.07;;;26.25;26.33
25664;BME280;13522;50.018;20.014;2023-04-24T10:42:22;97573.08;;;26.23;27.01
25664;BME280;13522;50.018;20.014;2023-04-24T10:45:34;97575.52;;;26.15;31.19
25664;BME280;13522;50.018;20.014;2023-04-24T10:48:53;97568.92;;;25.70;28.24
25664;BME280;13522;50.018;20.014;2023-04-24T10:52:10;97562.40;;;25.82;30.20
25664;BME280;13522;50.018;20.014;2023-04-24T10:55:46;97563.77;;;25.99;28.57
25664;BME280;13522;50.018;20.014;2023-04-24T10:58:59;97540.92;;;26.40;26.68
25664;BME280;13522;50.018;20.014;2023-04-24T11:02:13;97548.52;;;26.84;26.04
25664;BME280;13522;50.018;20.014;2023-04-24T11:05:56;97543.94;;;25.99;27.52
25664;BME280;13522;50.018;20.014;2023-04-24T11:09:12;97551.52;;;25.82;28.43
25664;BME280;13522;50.018;20.014;2023-04-24T11:12:28;97551.78;;;25.70;28.34
25664;BME280;13522;50.018;20.014;2023-04-24T11:15:44;97550.45;;;25.93;30.20
25664;BME280;13522;50.018;20.014;2023-04-24T11:19:03;97549.61;;;25.67;29.69
25664;BME280;13522;50.018;20.014;2023-04-24T11:22:18;97542.16;;;25.37;29.62
25664;BME280;13522;50.018;20.014;2023-04-24T11:25:31;97549.93;;;25.09;29.00
25664;BME280;13522;50.018;20.014;2023-04-24T11:28:48;97544.62;;;24.77;30.41
25664;BME280;13522;50.018;20.014;2023-04-24T11:32:13;97547.33;;;24.77;34.67
25664;BME280;13522;50.018;20.014;2023-04-24T11:35:39;97554.92;;;24.75;33.91
25664;BME280;13522;50.018;20.014;2023-04-24T11:38:51;97531.19;;;25.07;30.14
25664;BME280;13522;50.018;20.014;2023-04-24T11:42:06;97538.03;;;25.25;31.71
25664;BME280;13522;50.018;20.014;2023-04-24T11:45:21;97531.46;;;25.11;30.95
25664;BME280;13522;50.018;20.014;2023-04-24T11:48:37;97532.71;;;24.88;29.92
25664;BME280;13522;50.018;20.014;2023-04-24T11:51:50;97522.39;;;25.57;31.33
25664;BME280;13522;50.018;20.014;2023-04-24T11:55:12;97515.31;;;25.51;31.15
25664;BME280;13522;50.018;20.014;2023-04-24T11:58:38;97508.30;;;24.93;29.23
25664;BME280;13522;50.018;20.014;2023-04-24T12:01:51;97512.71;;;24.57;29.56
25664;BME280;13522;50.018;20.014;2023-04-24T12:05:03;97519.16;;;24.93;32.40
25664;BME280;13522;50.018;20.014;2023-04-24T12:08:29;97502.59;;;24.89;30.86
25664;BME280;13522;50.018;20.014;2023-04-24T12:11:55;97509.17;;;25.09;31.96
25664;BME280;13522;50.018;20.014;2023-04-24T12:15:10;97499.36;;;24.51;30.64
25664;BME280;13522;50.018;20.014;2023-04-24T12:18:25;97508.69;;;24.23;33.56
25664;BME280;13522;50.018;20.014;2023-04-24T12:21:37;97504.22;;;24.07;32.41
25664;BME280;13522;50.018;20.014;2023-04-24T12:25:03;97501.63;;;23.59;32.84
25664;BME280;13522;50.018;20.014;2023-04-24T12:28:15;97501.42;;;23.39;32.88
25664;BME280;13522;50.018;20.014;2023-04-24T12:31:28;97503.92;;;23.23;34.53
25664;BME280;13522;50.018;20.014;2023-04-24T12:34:40;97496.58;;;23.19;35.37
25664;BME280;13522;50.018;20.014;2023-04-24T12:37:55;97493.52;;;22.89;35.50
25664;BME280;13522;50.018;20.014;2023-04-24T12:41:11;97497.27;;;22.66;36.30
25664;BME280;13522;50.018;20.014;2023-04-24T12:44:32;97503.12;;;22.58;41.73
25664;BME280;13522;50.018;20.014;2023-04-24T12:47:45;97494.77;;;22.43;36.64
25664;BME280;13522;50.018;20.014;2023-04-24T12:51:00;97510.29;;;22.31;36.54
25664;BME280;13522;50.018;20.014;2023-04-24T12:54:12;97527.35;;;22.15;37.67
25664;BME280;13522;50.018;20.014;2023-04-24T12:57:24;97534.16;;;22.17;39.12
25664;BME280;13522;50.018;20.014;2023-04-24T13:00:38;97542.09;;;21.91;42.82
25664;BME280;13522;50.018;20.014;2023-04-24T13:03:51;97550.34;;;21.39;45.12
25664;BME280;13522;50.018;20.014;2023-04-24T13:07:04;97540.16;;;21.30;46.61
25664;BME280;13522;50.018;20.014;2023-04-24T13:10:17;97543.74;;;21.19;45.32
25664;BME280;13522;50.018;20.014;2023-04-24T13:13:29;97537.23;;;20.92;46.55
25664;BME280;13522;50.018;20.014;2023-04-24T13:16:41;97547.71;;;20.65;47.75
25664;BME280;13522;50.018;20.014;2023-04-24T13:19:55;97550.88;;;20.50;48.32
25664;BME280;13522;50.018;20.014;2023-04-24T13:23:08;97550.30;;;20.37;48.92
25664;BME280;13522;50.018;20.014;2023-04-24T13:26:21;97552.66;;;20.22;48.58
25664;BME280;13522;50.018;20.014;2023-04-24T13:29:33;97558.30;;;20.20;50.14
25664;BME280;13522;50.018;20.014;2023-04-24T13:32:46;97554.49;;;20.10;49.37
25664;BME280;13522;50.018;20.014;2023-04-24T13:35:58;97563.25;;;19.94;49.50
25664;BME280;13522;50.018;20.014;2023-04-24T13:39:11;97570.05;;;19.84;50.16
25664;BME280;13522;50.018;20.014;2023-04-24T13:42:23;97579.11;;;19.60;50.77
25664;BME280;13522;50.018;20.014;2023-04-24T13:45:36;97578.25;;;19.30;51.30
25664;BME280;13522;50.018;20.014;2023-04-24T13:48:48;97583.94;;;19.22;51.72
25664;BME280;13522;50.018;20.014;2023-04-24T13:52:01;97587.84;;;19.08;52.49
25664;BME280;13522;50.018;20.014;2023-04-24T13:55:16;97593.77;;;18.98;53.06
25664;BME280;13522;50.018;20.014;2023-04-24T13:58:28;97595.33;;;18.88;53.66
25664;BME280;13522;50.018;20.014;2023-04-24T14:01:42;97589.50;;;18.73;54.20
25664;BME280;13522;50.018;20.014;2023-04-24T14:04:55;97598.83;;;18.70;54.31
25664;BME280;13522;50.018;20.014;2023-04-24T14:08:08;97603.61;;;18.68;55.01
25664;BME280;13522;50.018;20.014;2023-04-24T14:11:20;97595.99;;;18.41;55.45
25664;BME280;13522;50.018;20.014;2023-04-24T14:14:33;97600.30;;;18.24;54.79
25664;BME280;13522;50.018;20.014;2023-04-24T14:17:45;97611.14;;;18.10;55.73
25664;BME280;13522;50.018;20.014;2023-04-24T14:20:58;97605.01;;;18.03;56.46
25664;BME280;13522;50.018;20.014;2023-04-24T14:24:10;97603.20;;;17.97;56.62
25664;BME280;13522;50.018;20.014;2023-04-24T14:27:22;97610.38;;;18.03;56.58
25664;BME280;13522;50.018;20.014;2023-04-24T14:30:34;97612.61;;;18.06;56.86
25664;BME280;13522;50.018;20.014;2023-04-24T14:33:47;97614.99;;;17.96;57.26
25664;BME280;13522;50.018;20.014;2023-04-24T14:36:59;97599.25;;;18.00;57.84
25664;BME280;13522;50.018;20.014;2023-04-24T14:40:12;97614.55;;;17.99;57.87
25664;BME280;13522;50.018;20.014;2023-04-24T14:43:27;97620.06;;;17.80;59.04
25664;BME280;13522;50.018;20.014;2023-04-24T14:46:41;97622.71;;;17.86;59.97
25664;BME280;13522;50.018;20.014;2023-04-24T14:49:54;97610.49;;;17.90;59.15
25664;BME280;13522;50.018;20.014;2023-04-24T14:53:06;97610.88;;;17.94;59.52
25664;BME280;13522;50.018;20.014;2023-04-24T14:56:18;97613.86;;;17.79;59.76
25664;BME280;13522;50.018;20.014;2023-04-24T14:59:31;97612.26;;;17.72;59.70
25664;BME280;13522;50.018;20.014;2023-04-24T15:02:44;97611.49;;;17.65;59.78
25664;BME280;13522;50.018;20.014;2023-04-24T15:05:56;97614.37;;;17.63;60.32
25664;BME280;13522;50.018;20.014;2023-04-24T15:09:09;97621.14;;;17.72;60.03
25664;BME280;13522;50.018;20.014;2023-04-24T15:12:21;97619.38;;;17.53;60.36
25664;BME280;13522;50.018;20.014;2023-04-24T15:15:34;97615.29;;;17.51;61.24
25664;BME280;13522;50.018;20.014;2023-04-24T15:18:47;97618.58;;;17.46;61.89
25664;BME280;13522;50.018;20.014;2023-04-24T15:21:59;97621.06;;;17.41;62.59
25664;BME280;13522;50.018;20.014;2023-04-24T15:25:11;97626.11;;;17.24;63.00
25664;BME280;13522;50.018;20.014;2023-04-24T15:28:24;97622.80;;;17.29;63.32
25664;BME280;13522;50.018;20.014;2023-04-24T15:31:36;97622.84;;;17.16;63.87
25664;BME280;13522;50.018;20.014;2023-04-24T15:34:48;97623.52;;;17.05;63.80
25664;BME280;13522;50.018;20.014;2023-04-24T15:38:03;97620.39;;;17.08;64.32
25664;BME280;13522;50.018;20.014;2023-04-24T15:41:16;97618.94;;;17.12;65.75
25664;BME280;13522;50.018;20.014;2023-04-24T15:44:28;97614.17;;;17.14;65.13
25664;BME280;13522;50.018;20.014;2023-04-24T15:47:40;97616.21;;;17.25;65.93
25664;BME280;13522;50.018;20.014;2023-04-24T15:50:53;97612.13;;;17.09;65.57
25664;BME280;13522;50.018;20.014;2023-04-24T15:54:06;97618.14;;;17.05;66.31
25664;BME280;13522;50.018;20.014;2023-04-24T15:57:19;97620.23;;;16.96;67.30
25664;BME280;13522;50.018;20.014;2023-04-24T16:00:32;97627.05;;;16.92;66.87
25664;BME280;13522;50.018;20.014;2023-04-24T16:03:44;97630.58;;;16.80;67.10
25664;BME280;13522;50.018;20.014;2023-04-24T16:06:57;97626.92;;;16.55;68.59
25664;BME280;13522;50.018;20.014;2023-04-24T16:10:11;97634.53;;;16.44;70.46
25664;BME280;13522;50.018;20.014;2023-04-24T16:13:23;97631.05;;;16.31;70.53
25664;BME280;13522;50.018;20.014;2023-04-24T16:16:37;97634.98;;;16.22;70.79
25664;BME280;13522;50.018;20.014;2023-04-24T16:19:49;97631.67;;;16.13;70.87
25664;BME280;13522;50.018;20.014;2023-04-24T16:23:01;97638.66;;;16.14;71.10
25664;BME280;13522;50.018;20.014;2023-04-24T16:26:14;97625.89;;;16.03;72.06
25664;BME280;13522;50.018;20.014;2023-04-24T16:29:26;97629.20;;;15.92;72.96
25664;BME280;13522;50.018;20.014;2023-04-24T16:32:40;97636.59;;;15.97;72.75
25664;BME280;13522;50.018;20.014;2023-04-24T16:35:52;97623.64;;;16.00;72.92
25664;BME280;13522;50.018;20.014;2023-04-24T16:39:05;97627.14;;;15.94;73.67
25664;BME280;13522;50.018;20.014;2023-04-24T16:42:18;97624.46;;;15.94;74.13
25664;BME280;13522;50.018;20.014;2023-04-24T16:45:30;97626.32;;;16.00;73.92
25664;BME280;13522;50.018;20.014;2023-04-24T16:48:43;97625.88;;;15.97;74.05
25664;BME280;13522;50.018;20.014;2023-04-24T16:51:56;97625.69;;;15.92;73.93
25664;BME280;13522;50.018;20.014;2023-04-24T16:55:09;97624.66;;;15.99;74.65
25664;BME280;13522;50.018;20.014;2023-04-24T16:58:21;97628.77;;;15.95;74.58
25664;BME280;13522;50.018;20.014;2023-04-24T17:01:34;97622.78;;;15.87;75.40
25664;BME280;13522;50.018;20.014;2023-04-24T17:04:46;97621.77;;;15.75;75.93
25664;BME280;13522;50.018;20.014;2023-04-24T17:07:59;97625.47;;;15.80;76.29
25664;BME280;13522;50.018;20.014;2023-04-24T17:11:11;97625.47;;;15.80;75.70
25664;BME280;13522;50.018;20.014;2023-04-24T17:14:24;97629.77;;;15.68;76.87
25664;BME280;13522;50.018;20.014;2023-04-24T17:17:36;97622.36;;;15.70;77.25
25664;BME280;13522;50.018;20.014;2023-04-24T17:20:49;97624.42;;;15.68;76.69
25664;BME280;13522;50.018;20.014;2023-04-24T17:24:01;97625.04;;;15.70;77.22
25664;BME280;13522;50.018;20.014;2023-04-24T17:27:14;97626.28;;;15.74;76.80
25664;BME280;13522;50.018;20.014;2023-04-24T17:30:26;97628.53;;;15.64;77.52
25664;BME280;13522;50.018;20.014;2023-04-24T17:33:38;97629.54;;;15.63;77.34
25664;BME280;13522;50.018;20.014;2023-04-24T17:36:50;97624.39;;;15.61;77.14
25664;BME280;13522;50.018;20.014;2023-04-24T17:40:04;97618.63;;;15.58;77.45
25664;BME280;13522;50.018;20.014;2023-04-24T17:43:17;97620.06;;;15.54;77.30
25664;BME280;13522;50.018;20.014;2023-04-24T17:46:30;97615.93;;;15.51;77.53
25664;BME280;13522;50.018;20.014;2023-04-24T17:49:42;97623.70;;;15.40;79.78
25664;BME280;13522;50.018;20.014;2023-04-24T17:52:54;97627.17;;;15.34;79.20
25664;BME280;13522;50.018;20.014;2023-04-24T17:56:08;97622.86;;;15.39;79.60
25664;BME280;13522;50.018;20.014;2023-04-24T17:59:20;97616.73;;;15.45;80.21
25664;BME280;13522;50.018;20.014;2023-04-24T18:02:33;97640.96;;;15.31;80.51
25664;BME280;13522;50.018;20.014;2023-04-24T18:05:46;97635.78;;;15.23;80.48
25664;BME280;13522;50.018;20.014;2023-04-24T18:08:59;97635.34;;;15.19;80.66
25664;BME280;13522;50.018;20.014;2023-04-24T18:12:11;97643.81;;;15.23;80.87
25664;BME280;13522;50.018;20.014;2023-04-24T18:15:24;97647.11;;;15.25;80.72
25664;BME280;13522;50.018;20.014;2023-04-24T18:18:37;97656.98;;;15.24;80.45
25664;BME280;13522;50.018;20.014;2023-04-24T18:21:49;97650.38;;;15.20;80.26
25664;BME280;13522;50.018;20.014;2023-04-24T18:25:01;97648.91;;;15.11;80.12
25664;BME280;13522;50.018;20.014;2023-04-24T18:28:14;97647.45;;;15.15;79.46
25664;BME280;13522;50.018;20.014;2023-04-24T18:31:28;97656.94;;;15.18;78.95
25664;BME280;13522;50.018;20.014;2023-04-24T18:34:40;97658.77;;;15.11;80.68
25664;BME280;13522;50.018;20.014;2023-04-24T18:37:53;97652.17;;;15.07;80.41
25664;BME280;13522;50.018;20.014;2023-04-24T18:41:05;97659.31;;;15.00;80.99
25664;BME280;13522;50.018;20.014;2023-04-24T18:44:19;97660.73;;;14.96;81.77
25664;BME280;13522;50.018;20.014;2023-04-24T18:47:32;97670.38;;;14.90;81.93
25664;BME280;13522;50.018;20.014;2023-04-24T18:50:44;97668.53;;;14.91;81.89
25664;BME280;13522;50.018;20.014;2023-04-24T18:53:56;97667.50;;;14.92;80.94
25664;BME280;13522;50.018;20.014;2023-04-24T18:57:09;97666.06;;;14.89;81.66
25664;BME280;13522;50.018;20.014;2023-04-24T19:00:22;97656.16;;;14.83;81.78
25664;BME280;13522;50.018;20.014;2023-04-24T19:03:34;97670.38;;;14.90;81.29
25664;BME280;13522;50.018;20.014;2023-04-24T19:06:47;97662.16;;;14.92;82.11
25664;BME280;13522;50.018;20.014;2023-04-24T19:09:59;97669.16;;;14.93;83.36
25664;BME280;13522;50.018;20.014;2023-04-24T19:13:12;97665.03;;;14.90;82.83
25664;BME280;13522;50.018;20.014;2023-04-24T19:16:25;97671.59;;;14.88;82.29
25664;BME280;13522;50.018;20.014;2023-04-24T19:19:37;97672.38;;;14.82;82.41
25664;BME280;13522;50.018;20.014;2023-04-24T19:22:51;97667.02;;;14.82;81.91
25664;BME280;13522;50.018;20.014;2023-04-24T19:26:04;97662.09;;;14.78;83.04
25664;BME280;13522;50.018;20.014;2023-04-24T19:29:19;97671.56;;;14.81;82.81
25664;BME280;13522;50.018;20.014;2023-04-24T19:32:31;97662.52;;;14.82;83.99
25664;BME280;13522;50.018;20.014;2023-04-24T19:35:43;97667.01;;;14.75;84.44
25664;BME280;13522;50.018;20.014;2023-04-24T19:38:56;97671.52;;;14.74;83.72
25664;BME280;13522;50.018;20.014;2023-04-24T19:42:09;97673.19;;;14.75;84.88